createdAt,value
2023-03-22T00:01:12.631Z,2.22
2023-03-22T00:02:26.297Z,2.53
2023-03-22T00:03:37.856Z,2.05
2023-03-22T00:04:49.323Z,1.83
2023-03-22T00:06:00.969Z,2.00
2023-03-22T00:07:12.455Z,2.38
2023-03-22T00:08:23.938Z,2.45
2023-03-22T00:09:36.489Z,2.80
2023-03-22T00:10:47.957Z,2.08
2023-03-22T00:11:59.416Z,2.75
2023-03-22T00:13:11.575Z,2.40
2023-03-22T00:14:23.119Z,2.40
2023-03-22T00:15:34.811Z,2.20
2023-03-22T00:16:46.448Z,2.22
2023-03-22T00:17:59.081Z,2.30
2023-03-22T00:19:10.708Z,2.33
2023-03-22T00:20:23.635Z,2.58
2023-03-22T00:21:35.204Z,2.80
2023-03-22T00:22:47.172Z,2.70
2023-03-22T00:23:58.592Z,2.33
2023-03-22T00:25:10.497Z,3.03
2023-03-22T00:26:21.981Z,2.63
2023-03-22T00:27:33.454Z,3.35
2023-03-22T00:28:44.957Z,2.85
2023-03-22T00:29:56.503Z,2.80
2023-03-22T00:31:08.443Z,2.78
2023-03-22T00:32:20.076Z,3.10
2023-03-22T00:33:32.044Z,2.50
2023-03-22T00:34:43.811Z,2.40
2023-03-22T00:35:58.196Z,1.80
2023-03-22T00:37:09.749Z,2.47
2023-03-22T00:38:25.245Z,2.20
2023-03-22T00:39:44.402Z,2.28
2023-03-22T00:40:55.888Z,2.25
2023-03-22T00:42:07.292Z,2.75
2023-03-22T00:43:18.751Z,1.80
2023-03-22T00:44:30.163Z,2.30
2023-03-22T00:45:41.595Z,2.10
2023-03-22T00:46:53.099Z,2.05
2023-03-22T00:48:04.588Z,2.40
2023-03-22T00:49:16.094Z,2.47
2023-03-22T00:50:27.628Z,2.33
2023-03-22T00:51:39.063Z,2.15
2023-03-22T00:52:50.512Z,2.17
2023-03-22T00:54:01.944Z,1.80
2023-03-22T00:55:13.356Z,2.00
2023-03-22T00:56:25.659Z,2.58
2023-03-22T00:57:37.910Z,3.00
2023-03-22T00:58:49.404Z,3.58
2023-03-22T01:00:08.153Z,3.05
2023-03-22T01:01:19.773Z,2.85
2023-03-22T01:02:31.246Z,2.90
2023-03-22T01:03:43.345Z,2.17
2023-03-22T01:04:55.488Z,2.80
2023-03-22T01:06:07.292Z,3.20
2023-03-22T01:07:21.523Z,2.53
2023-03-22T01:08:33.324Z,2.60
2023-03-22T01:09:45.591Z,2.58
2023-03-22T01:10:57.022Z,3.25
2023-03-22T01:12:08.458Z,3.45
2023-03-22T01:13:19.907Z,3.95
2023-03-22T01:14:31.933Z,3.88
2023-03-22T01:15:43.360Z,4.22
2023-03-22T01:16:57.529Z,4.35
2023-03-22T01:18:09.157Z,3.53
2023-03-22T01:19:21.121Z,3.40
2023-03-22T01:20:32.566Z,4.65
2023-03-22T01:21:44.050Z,3.33
2023-03-22T01:22:55.526Z,3.30
2023-03-22T01:24:07.114Z,3.95
2023-03-22T01:25:18.715Z,3.63
2023-03-22T01:26:30.311Z,4.25
2023-03-22T01:27:41.823Z,4.07
2023-03-22T01:28:53.306Z,4.10
2023-03-22T01:30:05.288Z,3.95
2023-03-22T01:31:16.750Z,3.72
2023-03-22T01:32:28.327Z,3.67
2023-03-22T01:33:39.758Z,3.85
2023-03-22T01:34:52.250Z,3.80
2023-03-22T01:36:03.892Z,4.15
2023-03-22T01:37:15.362Z,4.30
2023-03-22T01:38:26.778Z,3.90
2023-03-22T01:39:38.333Z,3.70
2023-03-22T01:40:49.787Z,3.45
2023-03-22T01:42:02.155Z,3.03
2023-03-22T01:43:14.253Z,2.75
2023-03-22T01:44:29.620Z,3.97
2023-03-22T01:45:42.940Z,3.65
2023-03-22T01:46:54.403Z,4.00
2023-03-22T01:48:35.128Z,3.30
2023-03-22T01:49:46.592Z,2.88
2023-03-22T01:51:03.318Z,3.47
2023-03-22T01:52:15.146Z,3.25
2023-03-22T01:53:26.719Z,2.88
2023-03-22T01:54:46.923Z,3.53
2023-03-22T01:55:58.928Z,3.30
2023-03-22T01:57:10.869Z,3.67
2023-03-22T01:58:22.362Z,3.58
2023-03-22T01:59:33.841Z,3.42
2023-03-22T02:00:47.079Z,3.25
2023-03-22T02:02:02.855Z,3.15
2023-03-22T02:03:15.692Z,3.33
2023-03-22T02:04:34.133Z,3.65
2023-03-22T02:05:46.536Z,3.25
2023-03-22T02:06:58.797Z,3.42
2023-03-22T02:08:10.510Z,2.92
2023-03-22T02:09:22.141Z,4.00
2023-03-22T02:10:33.652Z,2.65
2023-03-22T02:11:48.986Z,3.20
2023-03-22T02:13:22.868Z,3.42
2023-03-22T02:14:51.360Z,3.10
2023-03-22T02:16:24.940Z,2.83
2023-03-22T02:17:36.308Z,3.10
2023-03-22T02:18:47.675Z,3.28
2023-03-22T02:20:17.834Z,3.40
2023-03-22T02:21:35.100Z,4.10
2023-03-22T02:22:46.502Z,4.22
2023-03-22T02:24:16.533Z,4.03
2023-03-22T02:25:40.695Z,7.25
2023-03-22T02:27:10.839Z,12.23
2023-03-22T02:28:31.336Z,9.73
2023-03-22T02:29:55.976Z,9.43
2023-03-22T02:31:22.583Z,9.32
2023-03-22T02:32:52.692Z,8.52
2023-03-22T02:34:04.081Z,6.93
2023-03-22T02:35:26.931Z,5.07
2023-03-22T02:36:44.283Z,4.22
2023-03-22T02:37:58.558Z,4.10
2023-03-22T02:39:12.788Z,3.60
2023-03-22T02:40:39.049Z,3.67
2023-03-22T02:41:59.182Z,2.80
2023-03-22T02:43:31.125Z,3.00
2023-03-22T02:44:45.055Z,3.33
2023-03-22T02:46:22.677Z,2.60
2023-03-22T02:47:42.264Z,3.20
2023-03-22T02:49:22.786Z,2.80
2023-03-22T02:50:48.273Z,3.63
2023-03-22T02:52:19.996Z,2.50
2023-03-22T02:53:51.800Z,2.92
2023-03-22T02:55:09.928Z,2.78
2023-03-22T02:56:27.359Z,3.00
2023-03-22T02:57:48.583Z,2.28
2023-03-22T02:59:01.518Z,2.78
2023-03-22T03:00:14.235Z,3.15
2023-03-22T03:01:28.088Z,3.17
2023-03-22T03:02:45.626Z,2.25
2023-03-22T03:03:59.910Z,2.80
2023-03-22T03:05:12.321Z,3.17
2023-03-22T03:06:27.357Z,3.30
2023-03-22T03:07:40.757Z,4.22
2023-03-22T03:08:53.478Z,4.38
2023-03-22T03:10:05.786Z,3.38
2023-03-22T03:11:17.689Z,3.33
2023-03-22T03:12:30.294Z,2.80
2023-03-22T03:13:42.073Z,3.38
2023-03-22T03:14:53.936Z,2.90
2023-03-22T03:16:07.865Z,3.25
2023-03-22T03:17:19.461Z,4.30
2023-03-22T03:18:46.084Z,2.30
2023-03-22T03:20:02.805Z,2.70
2023-03-22T03:21:17.887Z,3.28
2023-03-22T03:22:35.702Z,2.67
2023-03-22T03:23:49.787Z,3.17
2023-03-22T03:25:07.307Z,3.40
2023-03-22T03:26:18.921Z,3.42
2023-03-22T03:27:35.335Z,3.22
2023-03-22T03:28:52.204Z,2.60
2023-03-22T03:30:15.578Z,2.90
2023-03-22T03:31:45.580Z,3.10
2023-03-22T03:32:59.426Z,2.63
2023-03-22T03:34:16.359Z,3.42
2023-03-22T03:35:27.879Z,2.63
2023-03-22T03:36:40.894Z,2.45
2023-03-22T03:37:54.433Z,2.72
2023-03-22T03:39:07.923Z,3.00
2023-03-22T03:40:31.244Z,3.08
2023-03-22T03:41:44.238Z,3.25
2023-03-22T03:42:56.319Z,3.20
2023-03-22T03:44:07.996Z,3.65
2023-03-22T03:45:22.144Z,3.60
2023-03-22T03:46:33.592Z,3.85
2023-03-22T03:47:46.911Z,4.03
2023-03-22T03:48:59.107Z,3.53
2023-03-22T03:50:11.618Z,3.60
2023-03-22T03:51:23.204Z,6.30
2023-03-22T03:52:34.711Z,42.28
2023-03-22T03:53:46.265Z,13.05
2023-03-22T03:54:58.168Z,14.20
2023-03-22T03:56:10.082Z,26.45
2023-03-22T03:57:22.090Z,17.92
2023-03-22T03:58:33.736Z,12.65
2023-03-22T03:59:45.354Z,9.10
2023-03-22T04:00:56.854Z,4.70
2023-03-22T04:02:08.291Z,5.35
2023-03-22T04:03:19.756Z,4.72
2023-03-22T04:04:31.341Z,4.13
2023-03-22T04:05:42.923Z,3.90
2023-03-22T04:06:56.787Z,3.30
2023-03-22T04:08:08.438Z,4.57
2023-03-22T04:09:20.390Z,4.57
2023-03-22T04:10:31.852Z,4.50
2023-03-22T04:11:43.371Z,4.38
2023-03-22T04:12:54.786Z,4.13
2023-03-22T04:14:06.531Z,4.55
2023-03-22T04:15:18.012Z,4.35
2023-03-22T04:16:29.422Z,5.18
2023-03-22T04:17:40.995Z,4.55
2023-03-22T04:18:53.388Z,4.30
2023-03-22T04:20:06.224Z,4.60
2023-03-22T04:21:17.757Z,4.55
2023-03-22T04:22:29.153Z,5.13
2023-03-22T04:23:41.094Z,5.43
2023-03-22T04:24:52.747Z,4.72
2023-03-22T04:26:05.965Z,4.15
2023-03-22T04:27:18.395Z,4.43
2023-03-22T04:28:30.044Z,4.63
2023-03-22T04:29:41.495Z,3.88
2023-03-22T04:30:52.943Z,4.65
2023-03-22T04:32:04.497Z,4.13
2023-03-22T04:33:15.926Z,4.75
2023-03-22T04:34:27.355Z,4.45
2023-03-22T04:35:38.878Z,4.38
2023-03-22T04:36:50.792Z,4.22
2023-03-22T04:38:02.280Z,4.07
2023-03-22T04:39:13.750Z,4.65
2023-03-22T04:40:26.418Z,4.65
2023-03-22T04:41:37.849Z,4.53
2023-03-22T04:42:49.326Z,3.90
2023-03-22T04:44:03.365Z,4.05
2023-03-22T04:45:14.878Z,4.30
2023-03-22T04:46:26.646Z,3.92
2023-03-22T04:47:38.181Z,3.95
2023-03-22T04:48:49.713Z,4.60
2023-03-22T04:50:01.194Z,4.38
2023-03-22T04:51:12.693Z,4.85
2023-03-22T04:52:24.079Z,4.38
2023-03-22T04:53:38.753Z,4.45
2023-03-22T04:54:50.903Z,7.95
2023-03-22T04:56:05.573Z,23.15
2023-03-22T04:57:17.093Z,24.17
2023-03-22T04:58:28.641Z,24.27
2023-03-22T04:59:40.394Z,36.58
2023-03-22T05:00:52.896Z,43.58
2023-03-22T05:02:04.337Z,47.95
2023-03-22T05:03:19.258Z,46.45
2023-03-22T05:04:31.500Z,54.60
2023-03-22T05:05:49.596Z,54.03
2023-03-22T05:07:01.055Z,36.78
2023-03-22T05:08:14.453Z,32.10
2023-03-22T05:09:26.253Z,35.40
2023-03-22T05:10:39.687Z,31.67
2023-03-22T05:11:51.215Z,24.92
2023-03-22T05:13:02.681Z,19.20
2023-03-22T05:14:14.083Z,11.25
2023-03-22T05:15:25.683Z,7.68
2023-03-22T05:16:40.593Z,4.97
2023-03-22T05:17:52.074Z,3.90
2023-03-22T05:19:03.527Z,5.03
2023-03-22T05:20:15.063Z,5.70
2023-03-22T05:21:29.278Z,11.02
2023-03-22T05:22:41.273Z,28.08
2023-03-22T05:23:52.837Z,43.78
2023-03-22T05:25:05.569Z,52.92
2023-03-22T05:26:18.291Z,69.65
2023-03-22T05:27:34.636Z,62.75
2023-03-22T05:28:46.534Z,54.13
2023-03-22T05:29:58.079Z,48.80
2023-03-22T05:31:11.161Z,50.55
2023-03-22T05:32:25.790Z,47.63
2023-03-22T05:33:37.226Z,43.05
2023-03-22T05:34:48.688Z,35.10
2023-03-22T05:36:00.433Z,35.20
2023-03-22T05:37:11.869Z,43.88
2023-03-22T05:38:23.404Z,45.28
2023-03-22T05:39:34.892Z,39.95
2023-03-22T05:40:46.422Z,41.90
2023-03-22T05:41:57.900Z,32.10
2023-03-22T05:43:09.478Z,31.65
2023-03-22T05:44:21.116Z,26.83
2023-03-22T05:45:32.680Z,27.27
2023-03-22T05:46:44.213Z,27.75
2023-03-22T05:47:55.845Z,17.23
2023-03-22T05:49:07.347Z,15.68
2023-03-22T05:50:20.599Z,15.65
2023-03-22T05:51:32.052Z,17.20
2023-03-22T05:52:44.706Z,12.57
2023-03-22T05:53:56.299Z,17.60
2023-03-22T05:55:07.887Z,14.10
2023-03-22T05:56:21.934Z,12.60
2023-03-22T05:57:33.833Z,12.70
2023-03-22T05:58:45.426Z,10.38
2023-03-22T05:59:57.194Z,10.20
2023-03-22T06:01:11.558Z,8.43
2023-03-22T06:02:23.010Z,7.95
2023-03-22T06:03:34.529Z,9.07
2023-03-22T06:04:46.741Z,11.98
2023-03-22T06:05:58.271Z,9.68
2023-03-22T06:07:09.701Z,4.53
2023-03-22T06:08:22.590Z,4.90
2023-03-22T06:09:35.610Z,4.63
2023-03-22T06:10:49.072Z,5.05
2023-03-22T06:12:00.537Z,5.03
2023-03-22T06:13:12.039Z,4.80
2023-03-22T06:14:23.661Z,6.32
2023-03-22T06:15:35.304Z,6.10
2023-03-22T06:16:47.395Z,6.13
2023-03-22T06:17:58.900Z,6.40
2023-03-22T06:19:10.373Z,5.97
2023-03-22T06:20:21.897Z,6.05
2023-03-22T06:21:33.381Z,4.63
2023-03-22T06:22:44.916Z,4.53
2023-03-22T06:23:56.363Z,5.63
2023-03-22T06:25:08.230Z,6.75
2023-03-22T06:26:19.636Z,7.40
2023-03-22T06:27:31.206Z,9.48
2023-03-22T06:28:42.860Z,11.60
2023-03-22T06:29:54.910Z,11.57
2023-03-22T06:31:07.362Z,11.02
2023-03-22T06:32:19.209Z,10.85
2023-03-22T06:33:30.782Z,11.50
2023-03-22T06:34:42.306Z,11.02
2023-03-22T06:35:53.886Z,11.38
2023-03-22T06:37:05.709Z,11.70
2023-03-22T06:38:17.129Z,14.27
2023-03-22T06:39:28.599Z,15.82
2023-03-22T06:40:40.299Z,14.23
2023-03-22T06:41:52.397Z,13.73
2023-03-22T06:43:06.930Z,16.55
2023-03-22T06:44:18.765Z,18.38
2023-03-22T06:45:33.448Z,16.02
2023-03-22T06:46:44.893Z,14.25
2023-03-22T06:47:56.373Z,15.70
2023-03-22T06:49:08.127Z,15.73
2023-03-22T06:50:19.556Z,16.13
2023-03-22T06:51:31.145Z,15.02
2023-03-22T06:52:42.592Z,12.02
2023-03-22T06:53:54.098Z,11.90
2023-03-22T06:55:05.685Z,15.82
2023-03-22T06:56:17.265Z,14.25
2023-03-22T06:57:28.753Z,17.60
2023-03-22T06:58:41.085Z,12.45
2023-03-22T06:59:52.532Z,12.80
2023-03-22T07:01:04.264Z,26.25
2023-03-22T07:02:15.864Z,12.60
2023-03-22T07:03:27.325Z,14.13
2023-03-22T07:04:38.989Z,7.75
2023-03-22T07:05:50.445Z,6.82
2023-03-22T07:07:01.900Z,7.53
2023-03-22T07:08:13.423Z,5.03
2023-03-22T07:09:26.891Z,5.18
2023-03-22T07:10:38.961Z,5.72
2023-03-22T07:11:51.196Z,6.82
2023-03-22T07:13:03.316Z,7.00
2023-03-22T07:14:14.803Z,7.57
2023-03-22T07:15:26.317Z,6.20
2023-03-22T07:16:37.845Z,4.22
2023-03-22T07:17:49.263Z,5.78
2023-03-22T07:19:00.929Z,6.18
2023-03-22T07:20:12.448Z,5.40
2023-03-22T07:21:23.914Z,5.18
2023-03-22T07:22:35.421Z,5.93
2023-03-22T07:23:46.840Z,5.45
2023-03-22T07:25:00.607Z,4.82
2023-03-22T07:26:13.536Z,4.70
2023-03-22T07:27:25.299Z,4.85
2023-03-22T07:28:36.915Z,5.15
2023-03-22T07:29:48.380Z,6.45
2023-03-22T07:31:00.790Z,6.60
2023-03-22T07:32:12.410Z,5.47
2023-03-22T07:33:23.848Z,5.60
2023-03-22T07:34:35.398Z,4.50
2023-03-22T07:35:47.037Z,5.10
2023-03-22T07:36:58.830Z,6.22
2023-03-22T07:38:10.954Z,4.55
2023-03-22T07:39:24.774Z,6.32
2023-03-22T07:40:36.823Z,6.43
2023-03-22T07:41:48.585Z,8.60
2023-03-22T07:43:00.504Z,7.15
2023-03-22T07:44:18.035Z,5.57
2023-03-22T07:45:29.885Z,5.97
2023-03-22T07:46:41.336Z,5.82
2023-03-22T07:47:52.877Z,5.15
2023-03-22T07:49:04.535Z,7.63
2023-03-22T07:50:17.608Z,8.23
2023-03-22T07:51:30.080Z,6.85
2023-03-22T07:52:41.822Z,5.18
2023-03-22T07:53:53.236Z,7.85
2023-03-22T07:55:04.928Z,5.78
2023-03-22T07:56:16.401Z,6.03
2023-03-22T07:57:27.859Z,6.68
2023-03-22T07:58:39.673Z,5.28
2023-03-22T07:59:51.130Z,5.82
2023-03-22T08:01:09.099Z,5.47
2023-03-22T08:02:20.693Z,5.05
2023-03-22T08:03:32.138Z,4.88
2023-03-22T08:04:43.635Z,5.93
2023-03-22T08:05:58.621Z,11.77
2023-03-22T08:07:10.174Z,10.65
2023-03-22T08:08:21.664Z,20.20
2023-03-22T08:09:33.353Z,5.65
2023-03-22T08:10:48.691Z,11.70
2023-03-22T08:12:00.392Z,4.57
2023-03-22T08:13:11.782Z,4.90
2023-03-22T08:14:34.035Z,5.15
2023-03-22T08:15:47.567Z,3.88
2023-03-22T08:16:59.004Z,5.47
2023-03-22T08:18:10.979Z,4.93
2023-03-22T08:19:22.474Z,4.18
2023-03-22T08:20:34.136Z,5.05
2023-03-22T08:21:45.632Z,5.20
2023-03-22T08:22:57.079Z,4.80
2023-03-22T08:24:08.748Z,4.57
2023-03-22T08:25:21.014Z,4.72
2023-03-22T08:26:32.468Z,5.13
2023-03-22T08:27:43.917Z,4.53
2023-03-22T08:28:56.268Z,6.72
2023-03-22T08:30:08.063Z,4.78
2023-03-22T08:31:20.193Z,6.32
2023-03-22T08:32:33.125Z,5.90
2023-03-22T08:33:45.025Z,5.82
2023-03-22T08:34:56.576Z,6.53
2023-03-22T08:36:09.278Z,8.80
2023-03-22T08:37:20.819Z,6.00
2023-03-22T08:38:32.256Z,7.05
2023-03-22T08:39:43.763Z,6.93
2023-03-22T08:40:55.401Z,7.38
2023-03-22T08:42:06.961Z,7.70
2023-03-22T08:43:18.424Z,8.02
2023-03-22T08:44:30.375Z,7.50
2023-03-22T08:45:42.285Z,10.35
2023-03-22T08:46:54.271Z,9.65
2023-03-22T08:48:07.216Z,7.82
2023-03-22T08:49:18.885Z,8.88
2023-03-22T08:50:30.524Z,10.00
2023-03-22T08:51:42.102Z,7.05
2023-03-22T08:52:53.858Z,6.07
2023-03-22T08:54:05.408Z,6.57
2023-03-22T08:55:17.499Z,5.25
2023-03-22T08:56:29.008Z,4.50
2023-03-22T08:57:40.531Z,6.25
2023-03-22T08:58:52.032Z,5.20
2023-03-22T09:00:06.682Z,5.15
2023-03-22T09:01:21.064Z,6.38
2023-03-22T09:02:32.726Z,6.35
2023-03-22T09:03:44.227Z,5.20
2023-03-22T09:04:55.999Z,6.60
2023-03-22T09:06:07.880Z,4.97
2023-03-22T09:07:20.382Z,3.90
2023-03-22T09:08:31.874Z,3.60
2023-03-22T09:09:43.590Z,4.85
2023-03-22T09:10:55.083Z,5.50
2023-03-22T09:12:06.774Z,5.53
2023-03-22T09:13:18.719Z,4.75
2023-03-22T09:14:30.237Z,4.97
2023-03-22T09:15:42.073Z,4.05
2023-03-22T09:16:53.692Z,3.05
2023-03-22T09:18:05.688Z,3.97
2023-03-22T09:19:17.205Z,4.68
2023-03-22T09:20:28.643Z,3.80
2023-03-22T09:21:40.366Z,3.70
2023-03-22T09:22:52.529Z,3.33
2023-03-22T09:24:04.057Z,3.85
2023-03-22T09:25:15.760Z,6.85
2023-03-22T09:26:27.840Z,4.50
2023-03-22T09:27:39.306Z,5.23
2023-03-22T09:28:50.992Z,6.88
2023-03-22T09:30:02.512Z,5.37
2023-03-22T09:31:14.028Z,3.95
2023-03-22T09:32:26.062Z,2.60
2023-03-22T09:33:38.568Z,4.77
2023-03-22T09:34:50.090Z,3.50
2023-03-22T09:36:02.032Z,3.43
2023-03-22T09:37:14.802Z,5.53
2023-03-22T09:38:27.572Z,3.30
2023-03-22T09:39:39.631Z,2.60
2023-03-22T09:41:00.645Z,2.93
2023-03-22T09:42:22.010Z,3.07
2023-03-22T09:43:34.654Z,2.60
2023-03-22T09:44:46.634Z,5.37
2023-03-22T09:45:58.700Z,3.70
2023-03-22T09:47:19.558Z,3.27
2023-03-22T09:48:32.392Z,4.43
2023-03-22T09:49:53.437Z,2.70
2023-03-22T09:51:07.757Z,4.43
2023-03-22T09:52:19.335Z,3.00
2023-03-22T09:53:31.854Z,2.83
2023-03-22T09:54:45.562Z,5.43
2023-03-22T09:56:01.833Z,2.20
2023-03-22T09:57:24.274Z,2.13
2023-03-22T09:58:44.346Z,2.20
2023-03-22T10:00:14.929Z,2.77
2023-03-22T10:01:26.730Z,3.80
2023-03-22T10:02:57.948Z,3.97
2023-03-22T10:04:21.781Z,3.00
2023-03-22T10:05:33.267Z,3.57
2023-03-22T10:06:48.227Z,4.07
2023-03-22T10:08:08.543Z,2.97
2023-03-22T10:09:20.153Z,3.63
2023-03-22T10:10:31.775Z,3.00
2023-03-22T10:11:56.696Z,3.37
2023-03-22T10:13:08.133Z,3.10
2023-03-22T10:14:39.821Z,3.00
2023-03-22T10:15:55.945Z,3.40
2023-03-22T10:17:12.265Z,5.13
2023-03-22T10:18:29.994Z,3.50
2023-03-22T10:19:41.473Z,2.87
2023-03-22T10:21:00.761Z,3.67
2023-03-22T10:22:15.261Z,3.50
2023-03-22T10:23:36.471Z,5.20
2023-03-22T10:24:49.377Z,4.07
2023-03-22T10:26:02.567Z,4.67
2023-03-22T10:27:15.626Z,4.13
2023-03-22T10:28:29.875Z,6.53
2023-03-22T10:29:44.142Z,4.27
2023-03-22T10:30:57.142Z,2.93
2023-03-22T10:32:14.828Z,2.57
2023-03-22T10:33:39.588Z,2.80
2023-03-22T10:34:51.766Z,4.40
2023-03-22T10:36:04.232Z,3.10
2023-03-22T10:37:22.377Z,3.57
2023-03-22T10:38:36.042Z,2.73
2023-03-22T10:39:55.269Z,2.30
2023-03-22T10:41:06.955Z,3.30
2023-03-22T10:42:20.832Z,4.73
2023-03-22T10:43:34.899Z,3.83
2023-03-22T10:45:12.912Z,2.47
2023-03-22T10:46:26.153Z,2.40
2023-03-22T10:47:37.794Z,2.10
2023-03-22T10:48:50.958Z,2.63
2023-03-22T10:50:04.728Z,2.87
2023-03-22T10:51:28.065Z,2.07
2023-03-22T10:53:01.678Z,2.20
2023-03-22T10:54:14.258Z,3.87
2023-03-22T10:55:25.911Z,2.43
2023-03-22T10:56:37.360Z,2.53
2023-03-22T10:58:00.715Z,4.50
2023-03-22T10:59:30.767Z,2.20
2023-03-22T11:00:47.157Z,2.03
2023-03-22T11:01:58.977Z,3.00
2023-03-22T11:03:22.809Z,2.50
2023-03-22T11:04:37.524Z,1.80
2023-03-22T11:05:58.040Z,2.67
2023-03-22T11:07:15.035Z,3.70
2023-03-22T11:08:26.508Z,2.53
2023-03-22T11:09:37.963Z,3.03
2023-03-22T11:10:52.654Z,3.10
2023-03-22T11:12:06.488Z,2.17
2023-03-22T11:13:21.595Z,2.37
2023-03-22T11:14:37.335Z,3.53
2023-03-22T11:15:54.483Z,2.60
2023-03-22T11:17:06.121Z,1.83
2023-03-22T11:18:17.923Z,2.20
2023-03-22T11:19:33.484Z,2.10
2023-03-22T11:20:56.821Z,2.43
2023-03-22T11:22:19.904Z,2.63
2023-03-22T11:23:33.776Z,3.30
2023-03-22T11:24:46.783Z,3.93
2023-03-22T11:26:00.000Z,3.93
2023-03-22T11:27:19.246Z,4.10
2023-03-22T11:28:57.173Z,3.63
2023-03-22T11:30:20.006Z,3.90
2023-03-22T11:31:48.272Z,4.67
2023-03-22T11:33:01.201Z,5.97
2023-03-22T11:34:16.510Z,5.67
2023-03-22T11:35:29.387Z,4.77
2023-03-22T11:36:44.426Z,4.03
2023-03-22T11:37:56.258Z,4.40
2023-03-22T11:39:08.177Z,3.50
2023-03-22T11:40:24.481Z,3.50
2023-03-22T11:41:36.783Z,3.03
2023-03-22T11:42:49.576Z,3.03
2023-03-22T11:44:10.107Z,2.63
2023-03-22T11:45:29.492Z,4.27
2023-03-22T11:46:48.499Z,2.77
2023-03-22T11:48:05.741Z,3.23
2023-03-22T11:49:17.856Z,3.50
2023-03-22T11:50:30.887Z,2.70
2023-03-22T11:51:42.729Z,3.13
2023-03-22T11:52:54.741Z,3.23
2023-03-22T11:54:26.459Z,2.83
2023-03-22T11:55:38.377Z,3.00
2023-03-22T11:56:50.605Z,4.67
2023-03-22T11:58:06.140Z,3.13
2023-03-22T11:59:25.062Z,3.10
2023-03-22T12:00:37.977Z,2.93
2023-03-22T12:01:52.252Z,3.00
2023-03-22T12:03:05.950Z,3.27
2023-03-22T12:04:21.056Z,2.73
2023-03-22T12:05:33.925Z,2.10
2023-03-22T12:06:45.418Z,2.93
2023-03-22T12:08:02.826Z,3.83
2023-03-22T12:09:37.600Z,3.80
2023-03-22T12:10:52.619Z,3.27
2023-03-22T12:12:05.262Z,3.93
2023-03-22T12:13:22.506Z,4.10
2023-03-22T12:14:34.324Z,2.57
2023-03-22T12:15:49.070Z,2.53
2023-03-22T12:17:26.963Z,2.63
2023-03-22T12:18:41.482Z,3.47
2023-03-22T12:19:52.903Z,4.37
2023-03-22T12:21:04.422Z,3.90
2023-03-22T12:22:17.633Z,2.90
2023-03-22T12:23:30.686Z,19.40
2023-03-22T12:24:42.964Z,6.60
2023-03-22T12:26:04.262Z,4.13
2023-03-22T12:27:21.726Z,5.23
2023-03-22T12:28:38.438Z,3.70
2023-03-22T12:30:19.338Z,3.40
2023-03-22T12:31:42.595Z,4.70
2023-03-22T12:33:00.612Z,32.00
2023-03-22T12:34:16.366Z,30.63
2023-03-22T12:35:30.313Z,5.67
2023-03-22T12:36:43.314Z,3.50
2023-03-22T12:37:56.759Z,3.20
2023-03-22T12:39:09.478Z,4.13
2023-03-22T12:40:33.404Z,4.07
2023-03-22T12:41:47.273Z,5.77
2023-03-22T12:43:04.857Z,5.37
2023-03-22T12:44:22.448Z,5.07
2023-03-22T12:45:40.279Z,3.70
2023-03-22T12:46:57.256Z,2.70
2023-03-22T12:48:24.755Z,3.40
2023-03-22T12:49:40.524Z,2.23
2023-03-22T12:51:04.345Z,2.93
2023-03-22T12:52:15.779Z,3.47
2023-03-22T12:53:30.715Z,2.70
2023-03-22T12:54:42.439Z,2.97
2023-03-22T12:55:55.613Z,3.00
2023-03-22T12:57:08.172Z,2.87
2023-03-22T12:58:21.526Z,3.07
2023-03-22T12:59:33.052Z,2.33
2023-03-22T13:01:04.789Z,4.17
2023-03-22T13:02:18.579Z,3.57
2023-03-22T13:03:38.268Z,4.07
2023-03-22T13:04:51.578Z,2.83
2023-03-22T13:06:26.082Z,5.13
2023-03-22T13:07:57.233Z,13.33
2023-03-22T13:09:16.012Z,4.10
2023-03-22T13:10:30.490Z,3.20
2023-03-22T13:11:43.222Z,5.00
2023-03-22T13:13:13.407Z,3.90
2023-03-22T13:14:43.396Z,4.43
2023-03-22T13:15:57.829Z,3.67
2023-03-22T13:17:10.846Z,2.70
2023-03-22T13:18:40.734Z,3.90
2023-03-22T13:19:52.392Z,3.93
2023-03-22T13:21:09.719Z,3.03
2023-03-22T13:22:29.002Z,18.67
2023-03-22T13:23:54.052Z,3.80
2023-03-22T13:25:06.776Z,3.30
2023-03-22T13:26:19.474Z,2.90
2023-03-22T13:27:57.463Z,2.53
2023-03-22T13:29:17.842Z,2.90
2023-03-22T13:30:33.209Z,3.37
2023-03-22T13:31:46.542Z,2.37
2023-03-22T13:33:09.709Z,2.73
2023-03-22T13:34:29.985Z,3.30
2023-03-22T13:35:48.873Z,3.23
2023-03-22T13:37:03.654Z,2.97
2023-03-22T13:38:26.225Z,3.00
2023-03-22T13:39:39.362Z,2.47
2023-03-22T13:41:05.913Z,2.80
2023-03-22T13:42:22.515Z,2.17
2023-03-22T13:43:34.109Z,2.67
2023-03-22T13:44:51.647Z,2.57
2023-03-22T13:46:09.536Z,2.90
2023-03-22T13:47:30.307Z,3.20
2023-03-22T13:48:48.471Z,3.00
2023-03-22T13:50:02.328Z,3.23
2023-03-22T13:51:23.095Z,3.03
2023-03-22T13:52:36.681Z,2.43
2023-03-22T13:53:57.337Z,2.67
2023-03-22T13:55:35.876Z,2.60
2023-03-22T13:56:52.750Z,3.07
2023-03-22T13:58:06.164Z,3.20
2023-03-22T13:59:29.988Z,3.00
2023-03-22T14:00:44.808Z,2.50
2023-03-22T14:01:59.192Z,3.13
2023-03-22T14:03:15.929Z,3.90
2023-03-22T14:04:39.439Z,4.33
2023-03-22T14:05:57.351Z,3.13
2023-03-22T14:07:16.882Z,4.33
2023-03-22T14:08:29.278Z,4.03
2023-03-22T14:09:45.316Z,2.77
2023-03-22T14:11:04.110Z,2.90
2023-03-22T14:12:24.552Z,2.90
2023-03-22T14:13:56.840Z,3.60
2023-03-22T14:15:09.063Z,5.93
2023-03-22T14:16:39.070Z,7.67
2023-03-22T14:18:00.244Z,5.40
2023-03-22T14:19:22.373Z,4.53
2023-03-22T14:20:35.612Z,5.33
